Cypress, IL (62923)

11:40 PM CST on March 01, 2015 (GMT -0600)
Hidden River Farms | Change Station
CLOSE
Current Station
Personal Weather Station
Location: Buncombe, IL
Elevation: 466 ft
Nearby Weather Stations

Elev 466 ft 37.47 °N, 89.11 °W | Updated 38 seconds ago

Overcast
Overcast
30.4 °F
Feels Like 30 °F
N
2.9
Wind Variable Wind from North
Gusts 9.0 mph

Today
High -- | Low -- °F
--% Chance of Precip.
Yesterday
High -- | Low -- °F
Precip. -- in
6:27 AM 5:49 PM
Waxing Gibbous, 89% visible
Pressure 30.44 in
Visibility 7.0 miles
Clouds Mostly Cloudy 1700 ft
Overcast 3800 ft
Windchill 30 °F
Dew Point 26 °F
Humidity 84%
Rainfall 0.09 in
Snow Depth Not available.
UV 0 out of 12
Pollen .80 out of 12
Air Quality Not available.
Flu Activity Not available.
METAR KM30 020535Z AUTO 36006KT 7SM BKN017 OVC038 00/M02 A3044 RMK AO2 T00011025

More Conditions Fewer Conditions

Pressure 30.44 in
Visibility 7.0 miles
Clouds Mostly Cloudy 1700 ft
Overcast 3800 ft
Windchill 30 °F
Dew Point 26 °F
Humidity 84%
Rainfall 0.09 in
Snow Depth Not available.
UV 0 out of 12
Pollen .80 out of 12
Air Quality Not available.
Flu Activity Not available.
METAR KM30 020535Z AUTO 36006KT 7SM BKN017 OVC038 00/M02 A3044 RMK AO2 T00011025

More Conditions Fewer Conditions

10-Day Weather Forecast

Almanac

Astronomy

Mar. 01, 2015 Rise Set
Actual Time
Civil Twilight
Nautical Twilight
Astronomical Twilight
Moon
Length of Visible Light
Length of Day
Tomorrow will be .
, % of the Moon is Illuminated

Today's Extremes

State Highs State Lows

Community

WunderPhotos

Upload Photos

1,801,735 photos uploaded!

WunderBlogs® & News

Nearby

Air Quality

  Air Quality AQ Index Pollutant
Not available.

Snow Depth

Station Depth Elevation

Earthquake Activity

City Distance Mag. Time & Date
Minimum magnitude displayed is 2.5.

Coastal Water Temperatures

Place Temperature

Nearby Weather Stations